createdAt,value
2023-05-23T00:01:28.141Z,49.41
2023-05-23T00:03:57.048Z,49.39
2023-05-23T00:06:27.385Z,49.34
2023-05-23T00:08:57.675Z,49.26
2023-05-23T00:11:27.776Z,49.23
2023-05-23T00:13:58.254Z,49.40
2023-05-23T00:16:27.209Z,49.44
2023-05-23T00:18:58.780Z,49.42
2023-05-23T00:21:28.269Z,49.43
2023-05-23T00:23:57.768Z,49.32
2023-05-23T00:26:26.303Z,49.26
2023-05-23T00:28:56.988Z,49.15
2023-05-23T00:31:26.172Z,49.08
2023-05-23T00:34:00.063Z,48.98
2023-05-23T00:36:28.869Z,49.01
2023-05-23T00:39:18.867Z,48.94
2023-05-23T00:41:53.370Z,48.87
2023-05-23T00:44:32.664Z,48.83
2023-05-23T00:47:05.072Z,48.69
2023-05-23T00:49:34.706Z,48.53
2023-05-23T00:52:04.981Z,48.46
2023-05-23T00:54:35.705Z,48.40
2023-05-23T00:57:04.711Z,48.37
2023-05-23T00:59:34.346Z,48.39
2023-05-23T01:02:04.414Z,48.30
2023-05-23T01:04:35.281Z,48.18
2023-05-23T01:07:04.614Z,48.08
2023-05-23T01:09:34.057Z,48.15
2023-05-23T01:12:23.905Z,48.50
2023-05-23T01:15:09.523Z,48.30
2023-05-23T01:18:04.883Z,48.59
2023-05-23T01:20:48.134Z,48.40
2023-05-23T01:23:22.762Z,48.09
2023-05-23T01:26:02.852Z,48.03
2023-05-23T01:28:39.130Z,48.08
2023-05-23T01:31:12.481Z,47.96
2023-05-23T01:33:51.330Z,47.91
2023-05-23T01:36:21.600Z,47.79
2023-05-23T01:38:55.700Z,47.62
2023-05-23T01:41:25.056Z,47.50
2023-05-23T01:43:58.681Z,47.58
2023-05-23T01:46:31.201Z,47.58
2023-05-23T01:49:04.414Z,47.52
2023-05-23T01:51:36.909Z,47.42
2023-05-23T01:54:08.570Z,47.32
2023-05-23T01:56:38.953Z,47.23
2023-05-23T01:59:08.857Z,47.16
2023-05-23T02:01:40.301Z,47.16
2023-05-23T02:04:10.857Z,47.11
2023-05-23T02:06:40.052Z,47.05
2023-05-23T02:09:11.088Z,47.03
2023-05-23T02:11:41.127Z,46.97
2023-05-23T02:14:13.641Z,46.85
2023-05-23T02:16:46.861Z,46.90
2023-05-23T02:19:20.570Z,46.87
2023-05-23T02:21:53.676Z,46.84
2023-05-23T02:24:22.813Z,46.55
2023-05-23T02:26:53.592Z,46.55
2023-05-23T02:29:25.037Z,46.51
2023-05-23T02:31:55.371Z,46.42
2023-05-23T02:34:24.631Z,46.32
2023-05-23T02:36:55.779Z,46.36
2023-05-23T02:39:25.552Z,46.31
2023-05-23T02:41:57.012Z,46.13
2023-05-23T02:44:28.052Z,46.05
2023-05-23T02:46:57.757Z,46.04
2023-05-23T02:49:28.249Z,45.94
2023-05-23T02:51:57.714Z,45.90
2023-05-23T02:54:28.430Z,45.94
2023-05-23T02:57:00.262Z,45.96
2023-05-23T02:59:32.164Z,46.01
2023-05-23T03:02:01.317Z,45.91
2023-05-23T03:04:36.458Z,45.85
2023-05-23T03:07:11.667Z,45.94
2023-05-23T03:09:48.216Z,45.78
2023-05-23T03:12:20.705Z,45.88
2023-05-23T03:14:52.003Z,45.90
2023-05-23T03:17:21.347Z,45.78
2023-05-23T03:19:52.171Z,45.78
2023-05-23T03:22:22.881Z,45.72
2023-05-23T03:24:52.609Z,45.63
2023-05-23T03:27:23.043Z,45.61
2023-05-23T03:29:52.894Z,45.66
2023-05-23T03:32:23.933Z,45.66
2023-05-23T03:34:54.053Z,45.67
2023-05-23T03:37:24.612Z,45.65
2023-05-23T03:39:55.202Z,45.70
2023-05-23T03:42:25.536Z,45.75
2023-05-23T03:44:57.541Z,45.72
2023-05-23T03:47:27.701Z,45.58
2023-05-23T03:49:59.274Z,45.49
2023-05-23T03:52:31.668Z,45.38
2023-05-23T03:55:01.335Z,45.40
2023-05-23T03:57:32.336Z,45.28
2023-05-23T04:00:08.154Z,45.22
2023-05-23T04:02:51.470Z,45.28
2023-05-23T04:05:24.731Z,45.23
2023-05-23T04:07:55.907Z,45.23
2023-05-23T04:10:25.243Z,45.16
2023-05-23T04:12:57.935Z,45.20
2023-05-23T04:15:28.737Z,45.08
2023-05-23T04:18:01.109Z,45.10
2023-05-23T04:20:32.752Z,45.01
2023-05-23T04:23:04.253Z,44.93
2023-05-23T04:25:37.237Z,44.89
2023-05-23T04:28:18.956Z,45.00
2023-05-23T04:30:51.060Z,44.89
2023-05-23T04:33:24.601Z,44.86
2023-05-23T04:35:53.398Z,44.80
2023-05-23T04:38:24.534Z,44.68
2023-05-23T04:40:53.597Z,44.68
2023-05-23T04:43:49.408Z,44.92
2023-05-23T04:47:16.469Z,45.12
2023-05-23T04:50:07.262Z,44.94
2023-05-23T04:52:37.371Z,44.66
2023-05-23T04:55:10.382Z,44.62
2023-05-23T04:57:41.305Z,44.55
2023-05-23T05:00:12.154Z,44.45
2023-05-23T05:02:47.434Z,44.46
2023-05-23T05:05:19.238Z,44.56
2023-05-23T05:07:50.762Z,44.49
2023-05-23T05:10:20.426Z,44.44
2023-05-23T05:12:51.472Z,44.48
2023-05-23T05:15:22.012Z,44.42
2023-05-23T05:17:56.997Z,44.38
2023-05-23T05:20:28.126Z,44.24
2023-05-23T05:22:59.698Z,44.24
2023-05-23T05:25:33.657Z,44.23
2023-05-23T05:28:09.528Z,44.21
2023-05-23T05:30:58.091Z,44.25
2023-05-23T05:33:29.435Z,44.15
2023-05-23T05:36:09.300Z,44.12
2023-05-23T05:38:39.810Z,44.08
2023-05-23T05:41:09.423Z,44.02
2023-05-23T05:43:45.314Z,43.99
2023-05-23T05:46:20.677Z,44.00
2023-05-23T05:48:51.798Z,44.04
2023-05-23T05:51:21.247Z,44.06
2023-05-23T05:53:52.205Z,44.02
2023-05-23T05:56:25.091Z,44.06
2023-05-23T05:58:55.776Z,44.05
2023-05-23T06:01:28.179Z,44.02
2023-05-23T06:04:00.156Z,44.01
2023-05-23T06:06:33.207Z,44.19
2023-05-23T06:09:08.529Z,44.13
2023-05-23T06:11:45.361Z,45.21
2023-05-23T06:14:20.053Z,45.61
2023-05-23T06:16:52.677Z,45.08
2023-05-23T06:19:24.894Z,44.19
2023-05-23T06:21:57.561Z,44.11
2023-05-23T06:24:27.030Z,43.89
2023-05-23T06:26:56.732Z,43.79
2023-05-23T06:29:27.186Z,43.78
2023-05-23T06:31:57.408Z,43.76
2023-05-23T06:34:28.531Z,43.73
2023-05-23T06:36:58.955Z,43.77
2023-05-23T06:39:28.360Z,43.79
2023-05-23T06:41:58.864Z,43.74
2023-05-23T06:44:32.950Z,43.78
2023-05-23T06:47:05.564Z,43.64
2023-05-23T06:49:36.821Z,43.56
2023-05-23T06:52:05.480Z,43.45
2023-05-23T06:54:37.580Z,43.42
2023-05-23T06:57:09.204Z,43.43
2023-05-23T06:59:40.140Z,43.43
2023-05-23T07:02:09.388Z,43.41
2023-05-23T07:04:40.737Z,43.41
2023-05-23T07:07:22.969Z,43.59
2023-05-23T07:09:53.232Z,43.44
2023-05-23T07:12:23.762Z,43.38
2023-05-23T07:14:55.987Z,43.46
2023-05-23T07:17:31.001Z,43.48
2023-05-23T07:20:00.869Z,43.50
2023-05-23T07:22:34.201Z,43.63
2023-05-23T07:25:08.280Z,43.70
2023-05-23T07:27:37.290Z,43.54
2023-05-23T07:30:11.812Z,43.56
2023-05-23T07:32:41.403Z,43.53
2023-05-23T07:35:19.618Z,43.58
2023-05-23T07:37:50.298Z,43.66
2023-05-23T07:40:21.100Z,43.57
2023-05-23T07:42:51.059Z,43.58
2023-05-23T07:45:20.713Z,43.51
2023-05-23T07:47:51.202Z,43.42
2023-05-23T07:50:21.477Z,43.43
2023-05-23T07:52:53.175Z,43.38
2023-05-23T07:55:28.002Z,43.32
2023-05-23T07:57:58.086Z,43.43
2023-05-23T08:00:29.659Z,43.39
2023-05-23T08:03:09.262Z,43.31
2023-05-23T08:05:53.160Z,44.87
2023-05-23T08:08:28.540Z,43.62
2023-05-23T08:11:08.771Z,43.42
2023-05-23T08:13:56.250Z,43.19
2023-05-23T08:16:51.681Z,43.09
2023-05-23T08:19:28.335Z,42.96
2023-05-23T08:21:59.782Z,43.06
2023-05-23T08:24:32.228Z,42.98
2023-05-23T08:27:01.383Z,42.85
2023-05-23T08:29:33.414Z,42.80
2023-05-23T08:32:13.201Z,42.82
2023-05-23T08:34:48.625Z,42.94
2023-05-23T08:37:19.389Z,42.87
2023-05-23T08:39:49.130Z,42.76
2023-05-23T08:42:40.184Z,42.79
2023-05-23T08:45:21.382Z,42.76
2023-05-23T08:47:53.713Z,42.69
2023-05-23T08:50:32.555Z,42.80
2023-05-23T08:53:11.619Z,42.75
2023-05-23T08:55:44.943Z,42.68
2023-05-23T08:58:29.890Z,42.81
2023-05-23T09:01:01.451Z,42.91
2023-05-23T09:03:32.773Z,42.68
2023-05-23T09:06:23.133Z,42.80
2023-05-23T09:08:53.013Z,42.66
2023-05-23T09:11:29.439Z,42.62
2023-05-23T09:14:04.610Z,42.59
2023-05-23T09:16:54.039Z,42.55
2023-05-23T09:19:26.896Z,42.54
2023-05-23T09:22:12.235Z,42.71
2023-05-23T09:25:12.608Z,42.67
2023-05-23T09:27:57.384Z,42.89
2023-05-23T09:30:31.955Z,43.18
2023-05-23T09:33:12.561Z,42.91
2023-05-23T09:35:53.168Z,43.18
2023-05-23T09:38:31.579Z,42.96
2023-05-23T09:41:09.043Z,42.88
2023-05-23T09:44:03.842Z,43.11
2023-05-23T09:46:50.060Z,42.87
2023-05-23T09:49:32.373Z,43.03
2023-05-23T09:52:05.409Z,42.79
2023-05-23T09:54:40.000Z,42.92
2023-05-23T09:57:25.376Z,42.94
2023-05-23T10:04:10.642Z,43.30
2023-05-23T10:09:10.921Z,43.35
2023-05-23T10:30:50.085Z,43.23
2023-05-23T10:35:16.300Z,43.19
2023-05-23T10:38:51.828Z,43.07
2023-05-23T10:41:31.700Z,42.76
2023-05-23T10:44:51.528Z,42.63
2023-05-23T10:47:30.995Z,42.55
2023-05-23T10:50:05.414Z,42.18
2023-05-23T10:52:51.114Z,42.26
2023-05-23T10:55:26.972Z,42.08
2023-05-23T10:58:20.587Z,42.32
2023-05-23T11:01:00.973Z,42.26
2023-05-23T11:03:59.660Z,42.25
2023-05-23T11:06:51.836Z,42.60
2023-05-23T11:09:24.416Z,42.44
2023-05-23T11:12:09.281Z,42.72
2023-05-23T11:14:40.624Z,42.69
2023-05-23T11:17:55.915Z,43.57
2023-05-23T11:20:29.212Z,44.37
2023-05-23T11:23:09.000Z,44.38
2023-05-23T11:25:53.420Z,43.46
2023-05-23T11:28:26.878Z,43.43
2023-05-23T11:31:00.921Z,43.31
2023-05-23T11:33:37.763Z,43.40
2023-05-23T11:36:40.845Z,43.59
2023-05-23T11:39:11.189Z,43.67
2023-05-23T11:41:44.620Z,43.72
2023-05-23T11:44:23.967Z,43.87
2023-05-23T11:47:08.836Z,44.11
2023-05-23T11:49:51.720Z,44.09
2023-05-23T11:52:25.436Z,44.13
2023-05-23T11:55:18.117Z,44.27
2023-05-23T11:58:00.642Z,44.49
2023-05-23T12:05:28.324Z,45.29
2023-05-23T12:09:35.317Z,45.31
2023-05-23T12:13:02.204Z,45.52
2023-05-23T12:20:47.326Z,45.85
2023-05-23T12:33:55.987Z,45.98
2023-05-23T12:37:39.841Z,46.34
2023-05-23T12:41:13.138Z,45.87
2023-05-23T12:53:44.343Z,46.16
2023-05-23T12:58:10.038Z,46.56
2023-05-23T13:37:45.685Z,47.63
2023-05-23T13:50:04.115Z,47.81
2023-05-23T13:52:45.669Z,47.50
2023-05-23T13:55:27.847Z,47.39
2023-05-23T13:57:59.568Z,47.34
2023-05-23T14:00:29.577Z,47.29
2023-05-23T14:03:04.322Z,47.30
2023-05-23T14:05:42.174Z,47.28
2023-05-23T14:08:24.330Z,47.41
2023-05-23T14:10:58.011Z,47.26
2023-05-23T14:13:36.234Z,47.36
2023-05-23T14:16:11.964Z,47.35
2023-05-23T14:18:47.091Z,47.38
2023-05-23T14:21:21.262Z,47.51
2023-05-23T14:23:57.241Z,47.57
2023-05-23T14:26:31.830Z,47.66
2023-05-23T14:29:03.718Z,47.63
2023-05-23T14:31:33.958Z,47.56
2023-05-23T14:34:05.449Z,47.55
2023-05-23T14:36:43.108Z,47.54
2023-05-23T14:39:36.184Z,47.62
2023-05-23T14:42:08.297Z,47.79
2023-05-23T14:44:42.815Z,47.70
2023-05-23T14:47:27.637Z,47.90
2023-05-23T14:50:00.765Z,47.97
2023-05-23T14:52:32.459Z,47.96
2023-05-23T14:55:04.456Z,47.99
2023-05-23T14:57:42.950Z,48.00
2023-05-23T15:00:37.580Z,48.13
2023-05-23T15:03:09.512Z,47.99
2023-05-23T15:05:48.238Z,47.98
2023-05-23T15:08:21.200Z,48.13
2023-05-23T15:10:53.564Z,48.24
2023-05-23T15:13:25.462Z,48.10
2023-05-23T15:16:05.261Z,48.17
2023-05-23T15:18:48.217Z,48.33
2023-05-23T15:21:26.384Z,48.36
2023-05-23T15:24:12.015Z,48.48
2023-05-23T15:26:44.162Z,48.48
2023-05-23T15:29:29.486Z,48.65
2023-05-23T15:33:03.725Z,49.42
2023-05-23T15:41:08.450Z,49.64
2023-05-23T15:45:13.550Z,49.99
2023-05-23T15:51:58.117Z,49.63
2023-05-23T15:55:14.090Z,49.48
2023-05-23T15:59:29.279Z,49.77
2023-05-23T16:44:24.908Z,50.53
2023-05-23T16:46:55.673Z,49.97
2023-05-23T16:49:25.689Z,49.82
2023-05-23T16:51:56.559Z,49.74
2023-05-23T16:54:25.271Z,50.13
2023-05-23T16:56:56.392Z,49.73
2023-05-23T16:59:25.447Z,49.66
2023-05-23T17:01:55.654Z,51.10
2023-05-23T17:04:25.572Z,50.16
2023-05-23T17:06:56.350Z,50.00
2023-05-23T17:09:25.919Z,50.19
2023-05-23T17:11:55.473Z,50.27
2023-05-23T17:14:28.210Z,50.18
2023-05-23T17:16:59.933Z,50.15
2023-05-23T17:19:29.372Z,50.10
2023-05-23T17:21:59.747Z,50.10
2023-05-23T17:24:29.250Z,50.18
2023-05-23T17:26:59.122Z,49.96
2023-05-23T17:29:28.620Z,49.98
2023-05-23T17:31:57.497Z,49.92
2023-05-23T17:34:29.353Z,49.84
2023-05-23T17:37:01.132Z,49.60
2023-05-23T17:39:31.495Z,50.69
2023-05-23T17:42:03.731Z,51.15
2023-05-23T17:44:32.914Z,50.19
2023-05-23T17:47:03.484Z,50.09
2023-05-23T17:49:33.044Z,49.70
2023-05-23T17:52:08.528Z,49.74
2023-05-23T17:54:39.835Z,49.72
2023-05-23T17:57:09.766Z,49.77
2023-05-23T17:59:40.275Z,49.90
2023-05-23T18:02:12.444Z,50.13
2023-05-23T18:04:48.745Z,50.36
2023-05-23T18:07:23.385Z,50.24
2023-05-23T18:09:55.163Z,50.33
2023-05-23T18:12:24.775Z,50.15
2023-05-23T18:14:55.377Z,50.04
2023-05-23T18:17:25.495Z,50.01
2023-05-23T18:19:55.448Z,49.86
2023-05-23T18:22:26.072Z,49.85
2023-05-23T18:24:56.559Z,49.64
2023-05-23T18:27:25.551Z,49.60
2023-05-23T18:29:55.573Z,49.71
2023-05-23T18:32:24.939Z,49.73
2023-05-23T18:34:57.106Z,49.86
2023-05-23T18:37:28.490Z,49.73
2023-05-23T18:40:03.332Z,49.59
2023-05-23T18:42:38.527Z,49.64
2023-05-23T18:45:10.708Z,49.68
2023-05-23T18:47:41.069Z,49.74
2023-05-23T18:50:13.411Z,49.80
2023-05-23T18:52:50.688Z,49.93
2023-05-23T18:55:23.030Z,49.97
2023-05-23T18:57:55.460Z,49.96
2023-05-23T19:00:25.461Z,50.07
2023-05-23T19:02:56.998Z,50.13
2023-05-23T19:05:28.955Z,50.10
2023-05-23T19:08:03.636Z,50.08
2023-05-23T19:10:35.583Z,49.93
2023-05-23T19:13:06.291Z,49.78
2023-05-23T19:15:37.648Z,49.74
2023-05-23T19:18:14.697Z,49.72
2023-05-23T19:20:52.755Z,49.64
2023-05-23T19:23:23.590Z,49.77
2023-05-23T19:25:52.961Z,49.66
2023-05-23T19:28:23.633Z,49.64
2023-05-23T19:30:53.391Z,49.51
2023-05-23T19:33:24.526Z,49.59
2023-05-23T19:35:54.307Z,49.60
2023-05-23T19:38:27.924Z,49.53
2023-05-23T19:40:58.168Z,49.37
2023-05-23T19:43:29.514Z,49.28
2023-05-23T19:46:05.360Z,49.29
2023-05-23T19:48:36.107Z,49.36
2023-05-23T19:51:06.360Z,49.49
2023-05-23T19:53:37.165Z,49.45
2023-05-23T19:56:08.503Z,49.46
2023-05-23T19:58:41.034Z,49.53
2023-05-23T20:01:10.153Z,49.58
2023-05-23T20:03:44.089Z,49.63
2023-05-23T20:06:17.785Z,49.76
2023-05-23T20:08:51.692Z,49.57
2023-05-23T20:11:24.404Z,49.64
2023-05-23T20:14:28.110Z,49.81
2023-05-23T20:17:36.906Z,50.12
2023-05-23T20:20:31.410Z,50.08
2023-05-23T20:23:03.957Z,49.91
2023-05-23T20:25:35.321Z,49.60
2023-05-23T20:28:05.015Z,49.48
2023-05-23T20:30:33.824Z,49.51
2023-05-23T20:33:05.038Z,49.52
2023-05-23T20:35:36.135Z,49.29
2023-05-23T20:38:06.914Z,49.24
2023-05-23T20:40:40.125Z,49.21
2023-05-23T20:43:12.872Z,49.39
2023-05-23T20:45:47.458Z,49.40
2023-05-23T20:48:19.902Z,49.30
2023-05-23T20:50:52.402Z,49.21
2023-05-23T20:53:24.092Z,49.20
2023-05-23T20:56:07.328Z,49.14
2023-05-23T20:59:04.588Z,49.40
2023-05-23T21:01:41.756Z,49.52
2023-05-23T21:04:21.484Z,49.42
2023-05-23T21:06:53.664Z,49.51
2023-05-23T21:09:25.532Z,49.65
2023-05-23T21:12:12.022Z,49.71
2023-05-23T21:14:41.879Z,49.73
2023-05-23T21:17:13.973Z,49.74
2023-05-23T21:19:47.609Z,49.77
2023-05-23T21:22:21.815Z,49.88
2023-05-23T21:24:54.258Z,49.90
2023-05-23T21:27:30.132Z,49.92
2023-05-23T21:30:01.034Z,49.75
2023-05-23T21:32:56.076Z,49.84
2023-05-23T21:36:05.327Z,49.99
2023-05-23T21:38:53.452Z,49.92
2023-05-23T21:41:28.600Z,49.74
2023-05-23T21:43:59.417Z,49.57
2023-05-23T21:46:29.679Z,49.42
2023-05-23T21:49:01.431Z,49.24
2023-05-23T21:51:31.823Z,49.22
2023-05-23T21:54:03.402Z,49.92
2023-05-23T21:56:33.904Z,49.41
2023-05-23T21:59:09.377Z,49.57
2023-05-23T22:01:40.502Z,49.64
2023-05-23T22:04:09.780Z,49.55
2023-05-23T22:06:42.681Z,49.68
2023-05-23T22:09:21.197Z,49.60
2023-05-23T22:11:52.311Z,49.51
2023-05-23T22:14:22.344Z,49.53
2023-05-23T22:17:01.131Z,49.54
2023-05-23T22:19:32.204Z,49.49
2023-05-23T22:22:01.023Z,49.48
2023-05-23T22:24:33.647Z,49.45
2023-05-23T22:27:06.419Z,49.51
2023-05-23T22:30:11.406Z,49.69
2023-05-23T22:37:25.928Z,49.99
2023-05-23T22:40:01.370Z,49.67
2023-05-23T22:42:37.811Z,49.45
2023-05-23T22:45:50.218Z,49.76
2023-05-23T22:52:58.363Z,50.23
2023-05-23T22:55:46.012Z,49.80
2023-05-23T22:59:13.307Z,50.18
2023-05-23T23:03:09.977Z,50.08
2023-05-23T23:05:56.292Z,49.88
2023-05-23T23:08:30.031Z,49.65
2023-05-23T23:11:06.208Z,49.53
2023-05-23T23:13:47.297Z,49.55
2023-05-23T23:16:24.358Z,49.39
2023-05-23T23:18:58.352Z,49.46
2023-05-23T23:21:53.649Z,49.47
2023-05-23T23:24:58.336Z,49.53
2023-05-23T23:27:57.927Z,49.47
2023-05-23T23:30:56.450Z,49.46
2023-05-23T23:33:34.282Z,49.10
2023-05-23T23:36:17.816Z,48.85
2023-05-23T23:39:12.909Z,49.14
2023-05-23T23:42:09.534Z,49.28
2023-05-23T23:44:51.753Z,49.11
2023-05-23T23:47:25.073Z,49.03
2023-05-23T23:50:08.692Z,48.89
2023-05-23T23:52:43.572Z,48.93
2023-05-23T23:55:29.860Z,49.11
2023-05-23T23:58:02.065Z,49.03
